EW2719 Morke DK current weather conditions

sailwx.info

Wind from 185 at 7 knots gusting 18

Air temperature 2.2° C
Dewpoint 0.3° C

Last reported at 2019-Dec-13 00:45 UTC.
Time now 2019-Dec-13 02:13 UTC

Location: N 56°23' E 010°20'.
View on Google Maps.

See reports from other nearby stations

  
Tides and Currents Weather Stations Pressure Air Temp Water Temp Dewpoint Dewpoint Depression Visibility Wind Speed Wind Dir Waves Ship Positions
date/time (UTC)wind fromknots sea level pressurealtimeterstation pressurevisibilityair tempwater tempwave heightnotes
2019-Dec-13 00:45 185 7 gusting 18 2.2
2019-Dec-13 00:31 202 8 gusting 16 2.8
2019-Dec-13 00:15 166 9 gusting 15 2.2
2019-Dec-13 00:01 161 8 gusting 15 2.2
2019-Dec-12 23:45 182 6 gusting 16 2.2
2019-Dec-12 23:30 159 7 gusting 17 2.2
2019-Dec-12 23:15 173 5 gusting 7 2.2
2019-Dec-12 23:00 178 6 gusting 11 1.7
2019-Dec-12 22:45 158 6 gusting 13 1.7
2019-Dec-12 22:32 165 7 gusting 12 1.7
2019-Dec-12 22:16 185 9 gusting 13 1.7
2019-Dec-12 22:02 180 9 gusting 13 1.7
2019-Dec-12 21:46 175 7 gusting 13 1.7
2019-Dec-12 21:33 173 8 gusting 13 1.7
2019-Dec-12 21:17 163 6 gusting 10 1.7
2019-Dec-12 21:02 175 8 gusting 14 1.7
2019-Dec-12 20:48 182 7 gusting 12 1.7
2019-Dec-12 20:31 200 6 gusting 12 1.7
2019-Dec-12 20:17 194 8 gusting 13 1.7
2019-Dec-12 20:01 182 8 gusting 13 1.7
2019-Dec-12 19:46 194 7 gusting 13 1.7
2019-Dec-12 19:31 200 7 gusting 11 1.7
2019-Dec-12 19:16 195 8 gusting 11 1.7
2019-Dec-12 19:01 202 7 gusting 13 1.7
2019-Dec-12 18:46 199 7 gusting 12 2.2
2019-Dec-12 18:31 205 8 gusting 13 2.2
2019-Dec-12 18:16 175 8 gusting 15 2.2
2019-Dec-12 18:02 205 7 gusting 13 2.2
2019-Dec-12 17:47 192 7 gusting 9 2.2
2019-Dec-12 17:32 188 6 gusting 12 2.2
2019-Dec-12 17:16 184 8 gusting 13 2.2
2019-Dec-12 17:01 183 9 gusting 13 2.8
2019-Dec-12 16:46 195 6 gusting 12 2.8
2019-Dec-12 16:30 185 6 gusting 10 2.8
2019-Dec-12 16:15 175 7 gusting 11 2.8
2019-Dec-12 16:00 173 7 gusting 13 3.3
2019-Dec-12 15:45 189 6 gusting 9 3.3
2019-Dec-12 15:31 198 6 gusting 10 3.3
2019-Dec-12 15:15 217 6 gusting 13 3.9
2019-Dec-12 15:00 200 6 gusting 13 3.9
2019-Dec-12 14:45 184 6 gusting 13 3.9
2019-Dec-12 14:30 192 6 gusting 13 3.9
2019-Dec-12 14:15 200 8 gusting 13 3.9
2019-Dec-12 14:00 175 6 gusting 11 3.9
2019-Dec-12 13:45 169 8 gusting 11 3.9
2019-Dec-12 13:16 176 9 gusting 14 3.9
2019-Dec-12 13:02 188 8 gusting 15 3.9
2019-Dec-12 12:46 187 11 gusting 17 3.9
2019-Dec-12 12:31 169 12 gusting 16 3.9
2019-Dec-12 12:17 192 10 gusting 14 3.9
2019-Dec-12 12:03 178 7 gusting 13 3.9
2019-Dec-12 11:47 166 10 gusting 15 3.9
2019-Dec-12 11:32 190 10 gusting 15 3.9
2019-Dec-12 11:16 178 10 gusting 18 3.9
2019-Dec-12 11:01 180 8 gusting 13 3.3
2019-Dec-12 10:46 169 8 gusting 13 3.3
2019-Dec-12 10:31 182 5 gusting 11 3.3
2019-Dec-12 10:16 180 6 gusting 13 3.3
2019-Dec-12 10:02 176 7 gusting 12 3.3
2019-Dec-12 09:46 186 7 gusting 10 2.8
2019-Dec-12 09:31 197 6 gusting 9 2.8
2019-Dec-12 09:17 180 4 gusting 7 2.2
2019-Dec-12 09:01 191 6 gusting 8 2.2
2019-Dec-12 08:45 188 6 gusting 9 2.2
2019-Dec-12 08:30 193 5 gusting 7 1.7
2019-Dec-12 08:15 165 4 gusting 6 1.7
2019-Dec-12 07:30 191 6 gusting 11 2.2
2019-Dec-12 07:00 184 4 gusting 8 2.2
2019-Dec-12 06:45 194 5 gusting 8 2.2
2019-Dec-12 06:30 192 5 gusting 7 2.2
2019-Dec-12 06:17 207 4 gusting 7 2.2
2019-Dec-12 06:03 198 5 gusting 7 2.2
2019-Dec-12 05:48 173 3 gusting 6 2.2
2019-Dec-12 05:32 186 3 gusting 6 1.7
2019-Dec-12 05:17 196 5 gusting 12 2.2
2019-Dec-12 05:04 173 5 gusting 8 2.2
2019-Dec-12 04:47 170 3 gusting 5 1.7
2019-Dec-12 04:33 180 4 gusting 6 1.7
2019-Dec-12 04:17 180 3 gusting 6 1.7
2019-Dec-12 04:02 173 4 gusting 7 1.7
2019-Dec-12 03:47 166 6 gusting 8 1.7
2019-Dec-12 03:32 181 3 gusting 5 1.7
2019-Dec-12 03:17 159 4 gusting 6 1.7
2019-Dec-12 03:02 177 2 gusting 5 1.7
2019-Dec-12 02:46 178 3 gusting 6 1.7
2019-Dec-12 02:33 182 3 gusting 5 1.7
2019-Dec-12 02:18 175 2 gusting 5 1.7
2019-Dec-12 02:01 180 3 gusting 6 2.2
2019-Dec-12 01:46 182 3 gusting 6 2.2
2019-Dec-12 01:31 183 3 gusting 6 2.2
2019-Dec-12 01:16 169 3 gusting 6 2.2
2019-Dec-12 01:01 175 3 gusting 6 1.7
2019-Dec-12 00:46 196 3 gusting 6 1.7
2019-Dec-12 00:31 183 2 gusting 5 1.7
2019-Dec-12 00:16 195 4 gusting 6 2.2
2019-Dec-12 00:01 198 4 gusting 6 2.2
2019-Dec-11 23:45 189 5 gusting 7 2.2
2019-Dec-11 23:30 189 4 gusting 6 2.2
2019-Dec-11 23:15 182 4 gusting 6 2.2
2019-Dec-11 23:00 180 4 gusting 6 2.2
2019-Dec-11 22:45 179 3 gusting 6 2.2
2019-Dec-11 22:30 171 4 gusting 6 1.7
2019-Dec-11 22:15 178 4 gusting 6 2.2
2019-Dec-11 22:00 167 3 gusting 5 2.2
2019-Dec-11 21:45 181 4 gusting 6 2.2
2019-Dec-11 21:30 159 4 gusting 6 2.2
2019-Dec-11 21:16 178 4 gusting 6 2.2
2019-Dec-11 21:00 180 3 gusting 5 2.8
2019-Dec-11 20:45 184 3 gusting 6 2.8
2019-Dec-11 20:30 204 4 gusting 7 2.8
2019-Dec-11 20:15 207 4 gusting 7 2.8
2019-Dec-11 20:00 187 4 gusting 6 2.8
2019-Dec-11 19:45 205 5 gusting 7 3.3
2019-Dec-11 19:30 205 4 gusting 8 3.3
2019-Dec-11 19:16 200 6 gusting 10 3.3
2019-Dec-11 19:01 198 6 gusting 8 3.3
2019-Dec-11 18:48 184 6 gusting 10 3.9
2019-Dec-11 18:32 189 6 gusting 8 3.9
2019-Dec-11 18:16 214 7 gusting 11 3.9
2019-Dec-11 18:02 173 6 gusting 9 3.9
2019-Dec-11 17:46 192 5 gusting 7 3.9
2019-Dec-11 17:33 184 4 gusting 7 3.3
2019-Dec-11 17:17 179 5 gusting 7 3.9
2019-Dec-11 17:01 188 4 gusting 7 3.9
2019-Dec-11 16:47 201 4 gusting 8 3.9
2019-Dec-11 16:32 186 6 gusting 9 3.9
2019-Dec-11 16:17 187 6 gusting 11 3.9
2019-Dec-11 16:02 169 7 gusting 13 3.9
2019-Dec-11 15:46 167 6 gusting 10 3.9
2019-Dec-11 15:31 155 6 gusting 9 3.9
2019-Dec-11 15:17 167 6 gusting 10 3.9
2019-Dec-11 15:01 182 5 gusting 8 3.9
2019-Dec-11 14:46 180 5 gusting 7 3.9
2019-Dec-11 14:32 178 6 gusting 11 3.9
2019-Dec-11 14:16 180 6 gusting 9 4.4
2019-Dec-11 14:02 167 7 gusting 11 4.4
2019-Dec-11 13:47 187 6 gusting 10 4.4
2019-Dec-11 13:31 183 6 gusting 9 4.4
2019-Dec-11 13:17 198 7 gusting 11 5.0
2019-Dec-11 13:01 182 8 gusting 11 5.0
2019-Dec-11 12:46 207 6 gusting 12 5.0
2019-Dec-11 12:31 191 7 gusting 11 4.4
2019-Dec-11 12:16 198 7 gusting 12 4.4
2019-Dec-11 12:00 195 6 gusting 13 4.4
2019-Dec-11 11:47 190 6 gusting 9 4.4
2019-Dec-11 11:30 205 8 gusting 13 5.0
2019-Dec-11 11:16 167 6 gusting 11 5.0
2019-Dec-11 11:01 178 7 gusting 13 4.4
2019-Dec-11 10:46 186 7 gusting 10 4.4
2019-Dec-11 10:31 190 6 gusting 10 4.4
2019-Dec-11 10:16 175 5 gusting 7 4.4
2019-Dec-11 10:01 190 5 gusting 8 4.4
2019-Dec-11 09:45 194 5 gusting 8 4.4
2019-Dec-11 09:30 196 6 gusting 10 4.4
2019-Dec-11 09:15 205 6 gusting 12 4.4
2019-Dec-11 09:00 213 6 gusting 11 4.4
2019-Dec-11 08:45 212 6 gusting 11 4.4
2019-Dec-11 08:30 210 7 gusting 13 4.4
2019-Dec-11 08:15 188 9 gusting 13 4.4
2019-Dec-11 08:00 181 8 gusting 15 4.4
2019-Dec-11 07:45 219 9 gusting 13 4.4
2019-Dec-11 07:30 205 8 gusting 12 4.4
2019-Dec-11 07:15 194 9 gusting 15 4.4
2019-Dec-11 07:00 190 8 gusting 13 4.4
2019-Dec-11 06:45 178 9 gusting 18 4.4
2019-Dec-11 06:15 184 11 gusting 16 4.4
2019-Dec-11 06:00 187 12 gusting 19 4.4
2019-Dec-11 05:46 195 8 gusting 18 4.4
2019-Dec-11 05:31 200 14 gusting 21 4.4
2019-Dec-11 05:15 209 14 gusting 21 4.4
2019-Dec-11 05:01 205 13 gusting 25 3.9
2019-Dec-11 04:46 215 17 gusting 25 3.9
2019-Dec-11 04:30 194 19 gusting 31 3.9
2019-Dec-11 04:15 181 18 gusting 27 3.3
2019-Dec-11 04:01 194 19 gusting 29 3.3
2019-Dec-11 03:45 190 17 gusting 26 3.3
2019-Dec-11 03:30 188 19 gusting 29 3.3
2019-Dec-11 03:15 187 20 gusting 30 3.3
2019-Dec-11 03:00 192 20 gusting 26 3.3
2019-Dec-11 02:45 169 19 gusting 35 3.3
2019-Dec-11 02:30 184 20 gusting 31 3.3
2019-Dec-11 02:15 195 19 gusting 29 3.3
2019-Dec-11 02:00 178 20 gusting 31 3.3